createdAt,value
2023-03-29T00:00:37.171Z,99486.31
2023-03-29T00:03:09.750Z,99481.63
2023-03-29T00:05:42.199Z,99485.25
2023-03-29T00:08:15.311Z,99479.56
2023-03-29T00:10:50.636Z,99468.59
2023-03-29T00:13:21.895Z,99468.81
2023-03-29T00:15:54.493Z,99472.50
2023-03-29T00:18:25.805Z,99470.53
2023-03-29T00:20:58.958Z,99466.75
2023-03-29T00:23:30.599Z,99454.75
2023-03-29T00:26:02.442Z,99461.47
2023-03-29T00:28:34.810Z,99467.47
2023-03-29T00:31:10.631Z,99462.91
2023-03-29T00:33:43.908Z,99461.13
2023-03-29T00:36:18.077Z,99456.47
2023-03-29T00:38:50.002Z,99461.69
2023-03-29T00:41:22.906Z,99457.88
2023-03-29T00:44:01.666Z,99459.13
2023-03-29T00:46:36.180Z,99460.59
2023-03-29T00:49:15.008Z,99457.44
2023-03-29T00:51:47.045Z,99455.56
2023-03-29T00:54:20.390Z,99450.28
2023-03-29T00:56:53.734Z,99454.34
2023-03-29T00:59:30.007Z,99460.37
2023-03-29T01:02:06.667Z,99456.00
2023-03-29T01:04:59.394Z,99459.81
2023-03-29T01:07:58.845Z,99459.69
2023-03-29T01:10:42.030Z,99447.63
2023-03-29T01:13:19.343Z,99431.91
2023-03-29T01:15:50.809Z,99452.75
2023-03-29T01:18:24.021Z,99448.62
2023-03-29T01:21:11.385Z,99450.66
2023-03-29T01:23:52.082Z,99442.75
2023-03-29T01:26:43.425Z,99434.63
2023-03-29T01:29:36.354Z,99429.44
2023-03-29T01:32:15.040Z,99440.78
2023-03-29T01:35:11.047Z,99427.13
2023-03-29T01:37:52.788Z,99420.13
2023-03-29T01:40:23.638Z,99415.13
2023-03-29T01:43:20.592Z,99409.19
2023-03-29T01:46:17.329Z,99402.50
2023-03-29T01:48:54.305Z,99400.81
2023-03-29T01:51:37.082Z,99401.03
2023-03-29T01:54:22.672Z,99399.16
2023-03-29T01:56:58.029Z,99385.59
2023-03-29T01:59:33.165Z,99385.41
2023-03-29T02:02:11.060Z,99389.25
2023-03-29T02:04:48.853Z,99387.69
2023-03-29T02:07:27.126Z,99377.38
2023-03-29T02:10:01.295Z,99381.44
2023-03-29T02:12:34.006Z,99389.66
2023-03-29T02:15:05.896Z,99387.06
2023-03-29T02:17:37.981Z,99379.78
2023-03-29T02:20:23.233Z,99382.59
2023-03-29T02:23:15.258Z,99375.50
2023-03-29T02:25:48.443Z,99380.28
2023-03-29T02:28:19.310Z,99364.25
2023-03-29T02:30:51.502Z,99367.50
2023-03-29T02:33:46.852Z,99376.56
2023-03-29T02:36:25.163Z,99372.09
2023-03-29T02:38:57.849Z,99351.66
2023-03-29T02:41:29.851Z,99353.84
2023-03-29T02:44:05.690Z,99357.19
2023-03-29T02:46:39.224Z,99358.16
2023-03-29T02:49:12.405Z,99353.03
2023-03-29T02:51:43.863Z,99356.69
2023-03-29T02:54:22.890Z,99352.94
2023-03-29T02:57:02.681Z,99361.56
2023-03-29T02:59:34.911Z,99350.19
2023-03-29T03:02:06.598Z,99357.94
2023-03-29T03:04:38.485Z,99354.06
2023-03-29T03:07:10.572Z,99356.47
2023-03-29T03:09:42.551Z,99359.59
2023-03-29T03:12:14.232Z,99359.28
2023-03-29T03:14:45.850Z,99354.59
2023-03-29T03:17:19.282Z,99354.50
2023-03-29T03:19:50.936Z,99345.84
2023-03-29T03:22:23.517Z,99347.41
2023-03-29T03:24:56.867Z,99352.41
2023-03-29T03:27:28.352Z,99352.31
2023-03-29T03:29:59.567Z,99336.25
2023-03-29T03:32:34.573Z,99332.19
2023-03-29T03:35:09.680Z,99348.47
2023-03-29T03:37:42.183Z,99349.38
2023-03-29T03:40:15.205Z,99345.03
2023-03-29T03:42:46.684Z,99344.81
2023-03-29T03:45:19.078Z,99341.06
2023-03-29T03:47:53.272Z,99332.19
2023-03-29T03:50:25.642Z,99340.66
2023-03-29T03:52:56.734Z,99338.56
2023-03-29T03:55:33.736Z,99337.63
2023-03-29T03:58:05.121Z,99345.03
2023-03-29T04:00:36.387Z,99345.75
2023-03-29T04:03:09.626Z,99340.22
2023-03-29T04:05:45.942Z,99335.97
2023-03-29T04:08:16.249Z,99327.31
2023-03-29T04:10:55.533Z,99326.88
2023-03-29T04:13:27.739Z,99320.41
2023-03-29T04:16:05.043Z,99320.31
2023-03-29T04:18:36.050Z,99321.44
2023-03-29T04:21:08.111Z,99324.44
2023-03-29T04:23:40.390Z,99319.84
2023-03-29T04:26:13.673Z,99325.50
2023-03-29T04:28:45.571Z,99331.41
2023-03-29T04:31:17.174Z,99325.59
2023-03-29T04:33:52.321Z,99326.31
2023-03-29T04:36:25.928Z,99319.72
2023-03-29T04:38:56.813Z,99282.59
2023-03-29T04:41:30.332Z,99325.66
2023-03-29T04:44:04.439Z,99311.56
2023-03-29T04:46:37.187Z,99309.47
2023-03-29T04:49:09.902Z,99312.69
2023-03-29T04:51:41.884Z,99314.63
2023-03-29T04:54:14.530Z,99313.56
2023-03-29T04:56:48.465Z,99304.91
2023-03-29T04:59:21.696Z,99303.62
2023-03-29T05:01:52.953Z,99303.09
2023-03-29T05:04:25.922Z,99310.59
2023-03-29T05:07:02.464Z,99291.19
2023-03-29T05:09:36.945Z,99312.25
2023-03-29T05:12:09.753Z,99304.53
2023-03-29T05:14:43.858Z,99307.00
2023-03-29T05:17:15.589Z,99296.56
2023-03-29T05:19:46.304Z,99299.34
2023-03-29T05:22:18.135Z,99301.72
2023-03-29T05:24:52.732Z,99305.06
2023-03-29T05:27:25.235Z,99312.94
2023-03-29T05:30:00.308Z,99309.63
2023-03-29T05:32:34.248Z,99315.22
2023-03-29T05:35:06.270Z,99312.22
2023-03-29T05:37:38.300Z,99315.09
2023-03-29T05:40:11.833Z,99309.50
2023-03-29T05:42:45.498Z,99301.06
2023-03-29T05:45:19.585Z,99302.19
2023-03-29T05:47:52.439Z,99297.34
2023-03-29T05:50:24.608Z,99311.62
2023-03-29T05:52:59.442Z,99304.50
2023-03-29T05:55:31.823Z,99304.53
2023-03-29T05:58:03.177Z,99304.53
2023-03-29T06:00:37.610Z,99300.13
2023-03-29T06:03:21.243Z,99303.47
2023-03-29T06:06:03.828Z,99294.91
2023-03-29T06:08:36.541Z,99298.59
2023-03-29T06:11:13.899Z,99293.34
2023-03-29T06:13:50.260Z,99299.31
2023-03-29T06:16:21.945Z,99300.37
2023-03-29T06:18:54.581Z,99292.66
2023-03-29T06:21:28.383Z,99296.22
2023-03-29T06:23:59.489Z,99298.59
2023-03-29T06:26:32.599Z,99295.97
2023-03-29T06:29:05.116Z,99295.59
2023-03-29T06:31:37.462Z,99284.16
2023-03-29T06:34:08.412Z,99293.56
2023-03-29T06:36:43.610Z,99290.81
2023-03-29T06:39:15.556Z,99291.03
2023-03-29T06:41:50.596Z,99280.47
2023-03-29T06:44:23.256Z,99279.59
2023-03-29T06:46:54.912Z,99278.00
2023-03-29T06:49:27.531Z,99266.22
2023-03-29T06:52:01.474Z,99279.28
2023-03-29T06:54:33.043Z,99273.34
2023-03-29T06:57:06.101Z,99265.88
2023-03-29T06:59:38.562Z,99257.97
2023-03-29T07:02:12.713Z,99262.06
2023-03-29T07:04:48.709Z,99262.94
2023-03-29T07:07:22.338Z,99271.41
2023-03-29T07:09:55.489Z,99258.31
2023-03-29T07:12:27.570Z,99263.69
2023-03-29T07:15:00.030Z,99259.56
2023-03-29T07:17:36.892Z,99263.59
2023-03-29T07:20:14.959Z,99258.34
2023-03-29T07:22:47.521Z,99253.91
2023-03-29T07:25:20.176Z,99269.13
2023-03-29T07:27:51.928Z,99257.28
2023-03-29T07:30:25.932Z,99256.75
2023-03-29T07:33:01.323Z,99260.34
2023-03-29T07:35:34.609Z,99260.66
2023-03-29T07:38:05.945Z,99251.38
2023-03-29T07:40:38.316Z,99255.44
2023-03-29T07:43:12.933Z,99253.06
2023-03-29T07:45:45.533Z,99258.91
2023-03-29T07:48:16.951Z,99247.59
2023-03-29T07:50:50.632Z,99253.09
2023-03-29T07:53:22.494Z,99254.41
2023-03-29T07:55:56.187Z,99243.34
2023-03-29T07:58:29.735Z,99243.88
2023-03-29T08:01:02.178Z,99254.09
2023-03-29T08:03:35.666Z,99255.09
2023-03-29T08:06:09.156Z,99255.22
2023-03-29T08:08:40.536Z,99253.81
2023-03-29T08:11:11.678Z,99251.75
2023-03-29T08:13:44.061Z,99248.56
2023-03-29T08:16:18.821Z,99250.50
2023-03-29T08:18:51.626Z,99252.16
2023-03-29T08:21:23.828Z,99254.66
2023-03-29T08:23:55.443Z,99250.81
2023-03-29T08:26:27.813Z,99247.91
2023-03-29T08:28:59.298Z,99260.16
2023-03-29T08:31:31.711Z,99255.72
2023-03-29T08:34:04.606Z,99251.53
2023-03-29T08:36:43.169Z,99244.84
2023-03-29T08:39:16.786Z,99242.09
2023-03-29T08:42:05.973Z,99236.16
2023-03-29T08:45:07.532Z,99233.25
2023-03-29T08:48:05.464Z,99227.47
2023-03-29T08:50:46.830Z,99232.06
2023-03-29T08:53:22.995Z,99228.91
2023-03-29T08:55:59.905Z,99223.94
2023-03-29T08:58:36.222Z,99229.50
2023-03-29T09:01:12.504Z,99227.28
2023-03-29T09:04:02.227Z,99229.75
2023-03-29T09:06:34.192Z,99225.88
2023-03-29T09:09:11.687Z,99213.41
2023-03-29T09:12:05.775Z,99223.87
2023-03-29T09:14:58.733Z,99224.88
2023-03-29T09:17:35.220Z,99222.50
2023-03-29T09:20:32.934Z,99211.75
2023-03-29T09:23:10.936Z,99234.19
2023-03-29T09:25:56.570Z,99244.72
2023-03-29T09:28:55.628Z,99245.69
2023-03-29T09:31:33.972Z,99238.16
2023-03-29T09:34:15.976Z,99257.09
2023-03-29T09:37:05.326Z,99262.59
2023-03-29T09:39:39.029Z,99249.00
2023-03-29T09:42:15.009Z,99266.50
2023-03-29T09:44:52.785Z,99265.94
2023-03-29T09:47:35.157Z,99276.94
2023-03-29T09:50:29.470Z,99267.91
2023-03-29T09:53:02.131Z,99275.19
2023-03-29T09:55:37.741Z,99273.25
2023-03-29T09:58:21.193Z,99268.09
2023-03-29T10:00:54.353Z,99271.44
2023-03-29T10:03:31.148Z,99272.81
2023-03-29T10:06:06.450Z,99267.84
2023-03-29T10:08:44.245Z,99274.91
2023-03-29T10:11:24.934Z,99278.94
2023-03-29T10:13:58.088Z,99271.75
2023-03-29T10:16:40.054Z,99272.28
2023-03-29T10:19:25.712Z,99279.91
2023-03-29T10:22:01.560Z,99271.97
2023-03-29T10:24:33.781Z,99279.47
2023-03-29T10:27:09.037Z,99273.97
2023-03-29T10:29:44.711Z,99274.06
2023-03-29T10:32:34.913Z,99275.97
2023-03-29T10:35:31.535Z,99277.87
2023-03-29T10:38:05.768Z,99274.81
2023-03-29T10:40:45.454Z,99282.69
2023-03-29T10:43:24.270Z,99285.81
2023-03-29T10:45:58.380Z,99276.53
2023-03-29T10:48:33.758Z,99284.28
2023-03-29T10:51:08.858Z,99289.66
2023-03-29T10:53:39.959Z,99285.91
2023-03-29T10:56:33.987Z,99269.28
2023-03-29T10:59:31.995Z,99284.72
2023-03-29T11:02:44.071Z,99283.63
2023-03-29T11:05:22.840Z,99282.09
2023-03-29T11:08:21.992Z,99286.91
2023-03-29T11:11:10.365Z,99266.47
2023-03-29T11:13:50.288Z,99277.16
2023-03-29T11:16:31.758Z,99277.87
2023-03-29T11:19:42.803Z,99275.75
2023-03-29T11:22:26.590Z,99259.91
2023-03-29T11:25:29.723Z,99270.78
2023-03-29T11:28:20.593Z,99280.41
2023-03-29T11:31:19.454Z,99279.00
2023-03-29T11:34:00.879Z,99281.62
2023-03-29T11:36:52.625Z,99272.88
2023-03-29T11:39:29.628Z,99262.97
2023-03-29T11:42:14.124Z,99278.94
2023-03-29T11:44:50.198Z,99284.87
2023-03-29T11:47:23.958Z,99296.00
2023-03-29T11:50:16.073Z,99287.28
2023-03-29T11:52:52.381Z,99286.47
2023-03-29T11:55:42.169Z,99297.88
2023-03-29T11:58:25.295Z,99290.63
2023-03-29T12:01:05.691Z,99301.25
2023-03-29T12:03:54.122Z,99303.97
2023-03-29T12:06:33.682Z,99280.19
2023-03-29T12:09:13.689Z,99302.44
2023-03-29T12:11:58.557Z,99301.38
2023-03-29T12:14:49.991Z,99313.41
2023-03-29T12:17:31.164Z,99306.16
2023-03-29T12:20:27.782Z,99313.53
2023-03-29T12:23:01.965Z,99323.28
2023-03-29T12:25:56.792Z,99319.12
2023-03-29T12:29:06.098Z,99323.28
2023-03-29T12:32:17.179Z,99317.00
2023-03-29T12:35:18.361Z,99323.19
2023-03-29T12:38:23.631Z,99319.97
2023-03-29T12:41:05.786Z,99295.59
2023-03-29T12:43:44.213Z,99321.38
2023-03-29T12:46:24.731Z,99324.72
2023-03-29T12:48:58.863Z,99325.78
2023-03-29T12:51:34.752Z,99311.28
2023-03-29T12:54:18.011Z,99318.44
2023-03-29T12:56:59.701Z,99311.16
2023-03-29T12:59:49.485Z,99322.56
2023-03-29T13:02:33.855Z,99326.66
2023-03-29T13:05:08.090Z,99321.91
2023-03-29T13:07:48.478Z,99324.03
2023-03-29T13:10:42.538Z,99325.00
2023-03-29T13:13:25.071Z,99325.09
2023-03-29T13:15:55.473Z,99322.84
2023-03-29T13:18:41.857Z,99328.09
2023-03-29T13:21:37.928Z,99329.63
2023-03-29T13:24:37.911Z,99329.38
2023-03-29T13:27:35.173Z,99339.84
2023-03-29T13:30:25.196Z,99333.34
2023-03-29T13:33:13.842Z,99331.06
2023-03-29T13:35:53.014Z,99345.00
2023-03-29T13:38:30.433Z,99342.59
2023-03-29T13:41:06.149Z,99342.69
2023-03-29T13:43:58.940Z,99347.09
2023-03-29T13:46:46.271Z,99349.50
2023-03-29T13:49:26.118Z,99342.47
2023-03-29T13:52:14.058Z,99352.59
2023-03-29T13:54:59.385Z,99351.63
2023-03-29T13:57:42.016Z,99345.69
2023-03-29T14:00:18.884Z,99343.53
2023-03-29T14:02:57.091Z,99343.31
2023-03-29T14:05:34.915Z,99348.03
2023-03-29T14:08:18.923Z,99356.16
2023-03-29T14:10:51.784Z,99351.63
2023-03-29T14:13:26.525Z,99355.19
2023-03-29T14:16:05.656Z,99352.09
2023-03-29T14:18:41.840Z,99349.34
2023-03-29T14:21:15.288Z,99362.09
2023-03-29T14:23:55.679Z,99351.94
2023-03-29T14:26:33.414Z,99347.69
2023-03-29T14:29:06.279Z,99344.72
2023-03-29T14:31:41.441Z,99360.50
2023-03-29T14:34:19.240Z,99346.63
2023-03-29T14:36:51.750Z,99349.94
2023-03-29T14:39:25.612Z,99355.44
2023-03-29T14:41:58.731Z,99362.56
2023-03-29T14:44:34.308Z,99364.91
2023-03-29T14:47:06.827Z,99369.22
2023-03-29T14:49:40.179Z,99376.34
2023-03-29T14:52:14.032Z,99358.00
2023-03-29T14:54:50.429Z,99368.37
2023-03-29T14:57:27.690Z,99368.97
2023-03-29T15:00:07.935Z,99379.31
2023-03-29T15:02:39.411Z,99381.13
2023-03-29T15:05:26.524Z,99381.84
2023-03-29T15:07:57.233Z,99381.34
2023-03-29T15:10:28.457Z,99368.25
2023-03-29T15:13:04.302Z,99371.56
2023-03-29T15:15:39.265Z,99389.53
2023-03-29T15:18:13.367Z,99388.47
2023-03-29T15:20:46.588Z,99389.16
2023-03-29T15:23:23.137Z,99394.41
2023-03-29T15:26:08.660Z,99383.44
2023-03-29T15:28:50.161Z,99392.09
2023-03-29T15:31:24.167Z,99385.34
2023-03-29T15:34:14.334Z,99395.34
2023-03-29T15:36:47.266Z,99400.09
2023-03-29T15:39:21.188Z,99387.22
2023-03-29T15:41:54.338Z,99396.03
2023-03-29T15:44:36.196Z,99399.22
2023-03-29T15:47:13.300Z,99405.78
2023-03-29T15:49:45.213Z,99407.22
2023-03-29T15:52:19.059Z,99404.72
2023-03-29T15:54:50.182Z,99406.25
2023-03-29T15:57:23.117Z,99410.75
2023-03-29T15:59:54.969Z,99412.66
2023-03-29T16:02:27.708Z,99397.22
2023-03-29T16:04:59.572Z,99418.12
2023-03-29T16:07:32.204Z,99425.38
2023-03-29T16:10:04.011Z,99421.84
2023-03-29T16:12:36.996Z,99425.38
2023-03-29T16:15:22.182Z,99436.09
2023-03-29T16:17:53.408Z,99437.25
2023-03-29T16:20:25.737Z,99421.19
2023-03-29T16:22:56.755Z,99441.88
2023-03-29T16:25:27.685Z,99440.69
2023-03-29T16:27:58.698Z,99443.56
2023-03-29T16:30:32.443Z,99443.75
2023-03-29T16:33:07.054Z,99446.91
2023-03-29T16:35:41.496Z,99453.06
2023-03-29T16:38:13.933Z,99450.13
2023-03-29T16:40:46.146Z,99460.59
2023-03-29T16:43:17.570Z,99452.00
2023-03-29T16:45:48.983Z,99461.03
2023-03-29T16:48:21.095Z,99458.28
2023-03-29T16:50:51.884Z,99469.09
2023-03-29T16:53:24.892Z,99459.69
2023-03-29T16:55:57.988Z,99469.81
2023-03-29T16:58:28.693Z,99467.03
2023-03-29T17:01:00.280Z,99458.72
2023-03-29T17:03:31.574Z,99455.81
2023-03-29T17:06:05.446Z,99462.66
2023-03-29T17:08:37.832Z,99466.25
2023-03-29T17:11:10.773Z,99461.47
2023-03-29T17:13:42.827Z,99472.25
2023-03-29T17:16:14.870Z,99467.03
2023-03-29T17:18:46.726Z,99465.75
2023-03-29T17:21:19.317Z,99463.97
2023-03-29T17:23:49.791Z,99478.38
2023-03-29T17:26:21.803Z,99472.88
2023-03-29T17:28:53.061Z,99476.94
2023-03-29T17:31:24.817Z,99478.09
2023-03-29T17:33:55.406Z,99476.75
2023-03-29T17:36:29.652Z,99482.22
2023-03-29T17:39:02.566Z,99480.72
2023-03-29T17:41:34.356Z,99487.81
2023-03-29T17:44:05.509Z,99483.37
2023-03-29T17:46:39.148Z,99485.75
2023-03-29T17:49:10.170Z,99493.69
2023-03-29T17:51:41.524Z,99492.84
2023-03-29T17:54:13.559Z,99484.66
2023-03-29T17:56:45.639Z,99492.22
2023-03-29T17:59:17.717Z,99491.78
2023-03-29T18:01:49.683Z,99492.00
2023-03-29T18:04:19.434Z,99492.56
2023-03-29T18:06:51.166Z,99503.31
2023-03-29T18:09:24.515Z,99497.28
2023-03-29T18:11:57.058Z,99492.69
2023-03-29T18:14:28.960Z,99493.28
2023-03-29T18:19:45.575Z,99500.00
2023-03-29T18:22:19.150Z,99502.91
2023-03-29T18:24:49.997Z,99500.28
2023-03-29T18:27:21.786Z,99495.28
2023-03-29T18:29:52.966Z,99495.50
2023-03-29T18:32:23.668Z,99503.31
2023-03-29T18:34:54.475Z,99502.44
2023-03-29T18:37:26.956Z,99502.69
2023-03-29T18:39:58.983Z,99500.50
2023-03-29T18:42:31.049Z,99512.53
2023-03-29T18:45:04.099Z,99510.53
2023-03-29T18:47:35.941Z,99510.00
2023-03-29T18:50:07.634Z,99510.16
2023-03-29T18:52:39.134Z,99513.19
2023-03-29T18:55:11.016Z,99503.03
2023-03-29T18:57:42.420Z,99514.31
2023-03-29T19:00:14.529Z,99519.44
2023-03-29T19:02:45.646Z,99521.31
2023-03-29T19:05:18.124Z,99524.66
2023-03-29T19:07:49.890Z,99525.94
2023-03-29T19:10:22.526Z,99522.97
2023-03-29T19:12:55.056Z,99519.66
2023-03-29T19:15:26.556Z,99514.50
2023-03-29T19:17:58.274Z,99527.00
2023-03-29T19:20:31.141Z,99524.97
2023-03-29T19:23:02.678Z,99517.38
2023-03-29T19:25:34.004Z,99512.87
2023-03-29T19:28:07.191Z,99513.78
2023-03-29T19:30:39.715Z,99515.69
2023-03-29T19:33:10.933Z,99515.91
2023-03-29T19:35:43.067Z,99510.06
2023-03-29T19:38:14.938Z,99512.25
2023-03-29T19:40:48.567Z,99512.56
2023-03-29T19:43:19.636Z,99517.19
2023-03-29T19:45:52.636Z,99522.41
2023-03-29T19:48:24.930Z,99522.31
2023-03-29T19:50:55.729Z,99521.13
2023-03-29T19:53:27.005Z,99526.28
2023-03-29T19:55:59.058Z,99524.62
2023-03-29T19:58:30.605Z,99518.88
2023-03-29T20:01:03.288Z,99520.63
2023-03-29T20:03:35.331Z,99518.13
2023-03-29T20:06:07.603Z,99517.28
2023-03-29T20:08:40.309Z,99524.53
2023-03-29T20:11:12.895Z,99517.41
2023-03-29T20:13:45.911Z,99514.16
2023-03-29T20:16:19.359Z,99517.50
2023-03-29T20:18:49.746Z,99522.72
2023-03-29T20:21:20.704Z,99523.16
2023-03-29T20:23:52.213Z,99518.44
2023-03-29T20:26:23.720Z,99520.31
2023-03-29T20:28:54.619Z,99524.72
2023-03-29T20:31:26.269Z,99528.06
2023-03-29T20:33:57.993Z,99524.09
2023-03-29T20:36:31.753Z,99525.56
2023-03-29T20:39:03.703Z,99529.31
2023-03-29T20:41:39.185Z,99531.09
2023-03-29T20:44:11.958Z,99528.28
2023-03-29T20:46:54.816Z,99522.44
2023-03-29T20:49:27.112Z,99528.72
2023-03-29T20:51:59.289Z,99514.06
2023-03-29T20:54:34.665Z,99520.03
2023-03-29T20:57:07.412Z,99522.22
2023-03-29T20:59:39.405Z,99518.66
2023-03-29T21:02:13.892Z,99520.59
2023-03-29T21:04:45.177Z,99523.38
2023-03-29T21:07:17.799Z,99531.66
2023-03-29T21:09:50.609Z,99532.53
2023-03-29T21:12:24.746Z,99531.44
2023-03-29T21:14:57.687Z,99532.06
2023-03-29T21:17:29.561Z,99538.66
2023-03-29T21:20:01.003Z,99531.13
2023-03-29T21:22:34.378Z,99525.94
2023-03-29T21:25:06.263Z,99528.66
2023-03-29T21:27:40.484Z,99530.03
2023-03-29T21:30:13.837Z,99528.87
2023-03-29T21:32:45.045Z,99501.50
2023-03-29T21:35:16.582Z,99532.62
2023-03-29T21:37:47.177Z,99535.25
2023-03-29T21:40:17.399Z,99528.97
2023-03-29T21:42:49.312Z,99533.75
2023-03-29T21:45:21.956Z,99531.22
2023-03-29T21:47:53.497Z,99542.75
2023-03-29T21:50:28.028Z,99535.34
2023-03-29T21:52:59.201Z,99535.56
2023-03-29T21:55:30.286Z,99528.75
2023-03-29T21:58:02.262Z,99527.09
2023-03-29T22:00:34.104Z,99532.09
2023-03-29T22:03:05.655Z,99533.56
2023-03-29T22:05:37.394Z,99534.50
2023-03-29T22:08:11.710Z,99532.50
2023-03-29T22:10:42.879Z,99531.06
2023-03-29T22:13:15.237Z,99534.31
2023-03-29T22:15:47.321Z,99519.47
2023-03-29T22:18:18.531Z,99531.88
2023-03-29T22:20:50.643Z,99528.22
2023-03-29T22:23:22.139Z,99518.50
2023-03-29T22:25:52.301Z,99514.25
2023-03-29T22:28:24.625Z,99524.06
2023-03-29T22:30:56.036Z,99517.38
2023-03-29T22:33:26.966Z,99501.91
2023-03-29T22:35:58.818Z,99510.59
2023-03-29T22:38:33.062Z,99518.31
2023-03-29T22:41:05.021Z,99520.72
2023-03-29T22:43:38.291Z,99518.09
2023-03-29T22:46:12.616Z,99519.66
2023-03-29T22:48:44.645Z,99509.69
2023-03-29T22:51:17.086Z,99525.84
2023-03-29T22:53:48.828Z,99519.63
2023-03-29T22:56:19.371Z,99530.00
2023-03-29T22:58:50.614Z,99540.41
2023-03-29T23:01:22.979Z,99537.69
2023-03-29T23:03:54.233Z,99532.03
2023-03-29T23:06:25.329Z,99537.78
2023-03-29T23:08:57.113Z,99528.09
2023-03-29T23:11:29.500Z,99525.62
2023-03-29T23:14:05.093Z,99528.22
2023-03-29T23:16:38.426Z,99522.13
2023-03-29T23:19:08.823Z,99528.81
2023-03-29T23:21:40.309Z,99520.41
2023-03-29T23:24:12.553Z,99513.00
2023-03-29T23:26:43.814Z,99513.09
2023-03-29T23:29:16.584Z,99511.94
2023-03-29T23:31:48.479Z,99520.63
2023-03-29T23:34:21.508Z,99514.63
2023-03-29T23:36:51.796Z,99511.22
2023-03-29T23:39:24.822Z,99510.50
2023-03-29T23:41:55.555Z,99511.00
2023-03-29T23:44:26.149Z,99511.63
2023-03-29T23:46:56.932Z,99513.28
2023-03-29T23:49:27.091Z,99517.38
2023-03-29T23:52:01.324Z,99520.06
2023-03-29T23:54:32.735Z,99509.28
2023-03-29T23:57:05.790Z,99510.50
2023-03-29T23:59:38.581Z,99511.59
